Time;durP1;ratioP1;P1;durP2;ratioP2;P2;SDS_P1;SDS_P2;PMS_P1;PMS_P2;Temp;Humidity;BMP_temperature;BMP_pressure;BME280_temperature;BME280_humidity;BME280_pressure;Samples;Min_cycle;Max_cycle;Signal;HPM_P1;HPM_P2
2023/01/07 00:01:27;;;;;;;;;;;10.90;1.00;;;;;;5035935;28;19909;-76
2023/01/07 00:03:56;;;;;;;;;;;10.90;1.00;;;;;;5056356;28;19915;-76
2023/01/07 00:06:27;;;;;;;;;;;10.90;1.00;;;;;;5046616;28;19909;-76
2023/01/07 00:08:56;;;;;;;;;;;10.90;1.00;;;;;;5037553;28;19928;-76
2023/01/07 00:11:23;;;;;;;;;;;10.80;1.00;;;;;;5048445;28;19924;-76
2023/01/07 00:14:03;;;;;;;;;;;10.80;1.00;;;;;;5050325;28;20367;-75
2023/01/07 00:16:29;;;;;;;;;;;10.80;1.00;;;;;;5036625;28;19910;-76
2023/01/07 00:18:56;;;;;;;;;;;10.80;1.00;;;;;;5039483;28;19924;-76
2023/01/07 00:21:32;;;;;;;;;;;10.80;1.00;;;;;;5035558;28;19935;-75
2023/01/07 00:24:31;;;;;;;;;;;10.80;1.00;;;;;;5052649;28;20426;-84
2023/01/07 00:30:19;;;;;;;;;;;10.80;1.00;;;;;;5044495;28;20323;-84
2023/01/07 00:35:47;;;;;;;;;;;10.80;1.00;;;;;;5038570;28;19919;-84
2023/01/07 00:38:13;;;;;;;;;;;10.80;1.00;;;;;;5046206;28;19910;-76
2023/01/07 00:40:43;;;;;;;;;;;10.70;1.00;;;;;;5035451;28;20260;-76
2023/01/07 00:43:13;;;;;;;;;;;10.80;1.00;;;;;;5049393;28;19917;-76
2023/01/07 00:45:43;;;;;;;;;;;10.80;1.00;;;;;;5041913;28;19916;-76
2023/01/07 00:48:14;;;;;;;;;;;10.80;1.00;;;;;;5043818;28;19995;-75
2023/01/07 00:50:39;;;;;;;;;;;10.80;1.00;;;;;;5043047;28;19920;-75
2023/01/07 00:53:37;;;;;;;;;;;10.80;1.00;;;;;;5035558;28;19909;-77
2023/01/07 00:56:08;;;;;;;;;;;10.90;1.00;;;;;;5040060;28;19920;-76
2023/01/07 00:58:37;;;;;;;;;;;10.70;1.00;;;;;;5042669;28;19909;-75
2023/01/07 01:01:03;;;;;;;;;;;10.70;1.00;;;;;;5037684;28;19917;-76
2023/01/07 01:03:38;;;;;;;;;;;10.80;1.00;;;;;;5045754;28;19919;-76
2023/01/07 01:06:19;;;;;;;;;;;10.80;1.00;;;;;;5035159;28;19916;-76
2023/01/07 01:09:07;;;;;;;;;;;10.70;1.00;;;;;;5041359;28;19916;-84
2023/01/07 01:14:36;;;;;;;;;;;10.90;1.00;;;;;;5045644;28;19931;-84
2023/01/07 01:17:25;;;;;;;;;;;10.90;1.00;;;;;;5052965;28;20351;-84
2023/01/07 01:20:25;;;;;;;;;;;10.90;1.00;;;;;;5035075;28;19909;-84
2023/01/07 01:22:51;;;;;;;;;;;11.00;1.00;;;;;;5054544;28;19952;-85
2023/01/07 01:28:19;;;;;;;;;;;10.90;1.00;;;;;;5034403;28;19962;-84
2023/01/07 01:33:48;;;;;;;;;;;10.90;1.00;;;;;;5036846;28;19959;-84
2023/01/07 01:36:17;;;;;;;;;;;10.90;1.00;;;;;;5040362;28;19916;-84
2023/01/07 01:39:13;;;;;;;;;;;10.90;1.00;;;;;;5052847;28;19966;-84
2023/01/07 01:50:49;;;;;;;;;;;10.80;1.00;;;;;;5034013;28;19948;-84
2023/01/07 01:53:18;;;;;;;;;;;10.80;1.00;;;;;;5042938;28;19916;-84
2023/01/07 01:56:22;;;;;;;;;;;10.80;1.00;;;;;;5037356;28;20265;-75
2023/01/07 01:58:50;;;;;;;;;;;10.80;1.00;;;;;;5032114;28;19924;-75
2023/01/07 02:01:25;;;;;;;;;;;10.90;1.00;;;;;;5030147;28;19917;-76
2023/01/07 02:04:09;;;;;;;;;;;10.90;1.00;;;;;;5017490;28;19952;-76
2023/01/07 02:07:07;;;;;;;;;;;10.90;1.00;;;;;;5032076;28;19910;-75
2023/01/07 02:09:37;;;;;;;;;;;10.90;1.00;;;;;;5032179;28;19917;-84
2023/01/07 02:12:30;;;;;;;;;;;10.80;1.00;;;;;;5018455;28;20012;-84
2023/01/07 02:15:09;;;;;;;;;;;10.90;1.00;;;;;;5034826;28;19909;-84
2023/01/07 02:23:40;;;;;;;;;;;11.00;1.00;;;;;;5016044;28;19976;-84
2023/01/07 02:26:13;;;;;;;;;;;11.00;1.00;;;;;;5030326;28;19913;-76
2023/01/07 02:29:07;;;;;;;;;;;10.90;1.00;;;;;;5016031;28;19913;-75
2023/01/07 02:31:45;;;;;;;;;;;10.90;1.00;;;;;;5015890;28;19913;-75
2023/01/07 02:34:11;;;;;;;;;;;10.90;1.00;;;;;;5050286;28;20252;-75
2023/01/07 02:36:43;;;;;;;;;;;10.90;1.00;;;;;;5056864;28;19913;-76
2023/01/07 02:39:33;;;;;;;;;;;10.90;1.00;;;;;;5057955;28;19924;-76
2023/01/07 02:42:07;;;;;;;;;;;10.90;1.00;;;;;;5047031;28;20451;-75
2023/01/07 02:44:33;;;;;;;;;;;10.90;1.00;;;;;;5053967;28;20299;-76
2023/01/07 02:47:17;;;;;;;;;;;10.90;1.00;;;;;;5048790;28;19917;-77
2023/01/07 02:50:13;;;;;;;;;;;10.90;1.00;;;;;;5035895;28;19938;-76
2023/01/07 02:52:39;;;;;;;;;;;11.00;1.00;;;;;;5050819;28;19909;-76
2023/01/07 02:55:31;;;;;;;;;;;11.00;1.00;;;;;;5043572;28;19920;-76
2023/01/07 02:58:25;;;;;;;;;;;11.10;1.00;;;;;;5037308;28;19957;-76
2023/01/07 03:01:01;;;;;;;;;;;11.10;1.00;;;;;;5036943;28;19924;-76
2023/01/07 03:03:27;;;;;;;;;;;11.00;1.00;;;;;;5045275;28;20328;-75
2023/01/07 03:06:01;;;;;;;;;;;11.00;1.00;;;;;;5037346;28;19910;-76
2023/01/07 03:08:57;;;;;;;;;;;11.10;1.00;;;;;;5051177;28;20398;-76
2023/01/07 03:11:37;;;;;;;;;;;11.00;1.00;;;;;;5045086;28;19913;-76
2023/01/07 03:14:18;;;;;;;;;;;11.00;1.00;;;;;;5051200;28;20007;-76
2023/01/07 03:16:52;;;;;;;;;;;11.00;1.00;;;;;;5044562;28;19920;-76
2023/01/07 03:19:30;;;;;;;;;;;11.00;1.00;;;;;;5052613;28;19913;-76
2023/01/07 03:21:57;;;;;;;;;;;11.00;1.00;;;;;;5051491;28;19918;-76
2023/01/07 03:24:32;;;;;;;;;;;11.00;1.00;;;;;;5049313;28;19940;-82
2023/01/07 03:27:31;;;;;;;;;;;10.90;1.00;;;;;;5042363;28;20388;-84
2023/01/07 03:33:03;;;;;;;;;;;11.00;1.00;;;;;;5047635;28;19919;-85
2023/01/07 03:44:37;;;;;;;;;;;11.10;1.00;;;;;;5053132;28;19932;-84
2023/01/07 03:50:06;;;;;;;;;;;11.10;1.00;;;;;;5041001;28;19920;-84
2023/01/07 03:52:37;;;;;;;;;;;11.10;1.00;;;;;;5036076;28;19909;-84
2023/01/07 03:55:08;;;;;;;;;;;11.10;1.00;;;;;;5035681;28;19909;-76
2023/01/07 03:57:34;;;;;;;;;;;11.10;1.00;;;;;;5036269;28;19909;-76
2023/01/07 03:59:59;;;;;;;;;;;11.10;1.00;;;;;;5036304;28;19916;-76
2023/01/07 04:02:31;;;;;;;;;;;11.10;1.00;;;;;;5055506;28;19909;-76
2023/01/07 04:04:57;;;;;;;;;;;11.10;1.00;;;;;;5052815;28;20368;-76
2023/01/07 04:07:38;;;;;;;;;;;11.10;1.00;;;;;;5041425;28;19920;-76
2023/01/07 04:16:09;;;;;;;;;;;11.10;1.00;;;;;;5049798;28;20003;-84
2023/01/07 04:25:01;;;;;;;;;;;11.00;1.00;;;;;;5052811;28;19962;-84
2023/01/07 04:27:55;;;;;;;;;;;10.90;1.00;;;;;;5049477;28;19916;-75
2023/01/07 04:30:25;;;;;;;;;;;11.00;1.00;;;;;;5055510;28;19920;-76
2023/01/07 04:33:25;;;;;;;;;;;10.90;1.00;;;;;;5038686;28;19909;-76
2023/01/07 04:35:51;;;;;;;;;;;10.90;1.00;;;;;;5045938;28;19920;-76
2023/01/07 04:38:16;;;;;;;;;;;10.90;1.00;;;;;;5038866;28;19917;-76
2023/01/07 04:41:07;;;;;;;;;;;10.90;1.00;;;;;;5047350;28;19916;-84
2023/01/07 04:43:50;;;;;;;;;;;10.90;1.00;;;;;;5036648;28;20003;-84
2023/01/07 04:46:37;;;;;;;;;;;10.90;1.00;;;;;;5055170;28;19920;-84
2023/01/07 04:49:03;;;;;;;;;;;10.90;1.00;;;;;;5045065;28;20007;-84
2023/01/07 04:54:43;;;;;;;;;;;10.90;1.00;;;;;;5049271;28;19915;-84
2023/01/07 04:57:43;;;;;;;;;;;10.90;1.00;;;;;;5037852;28;19909;-84
2023/01/07 05:00:43;;;;;;;;;;;10.90;1.00;;;;;;5046121;28;19908;-84
2023/01/07 05:09:15;;;;;;;;;;;10.80;1.00;;;;;;5056557;28;20432;-84
2023/01/07 05:11:55;;;;;;;;;;;10.80;1.00;;;;;;5062113;28;19995;-76
2023/01/07 05:14:21;;;;;;;;;;;10.80;1.00;;;;;;5040474;28;19948;-76
2023/01/07 05:16:55;;;;;;;;;;;10.80;1.00;;;;;;5045261;28;19974;-75
2023/01/07 05:19:21;;;;;;;;;;;10.80;1.00;;;;;;5047315;28;19916;-75
2023/01/07 05:21:47;;;;;;;;;;;10.80;1.00;;;;;;5047296;28;19917;-76
2023/01/07 05:24:12;;;;;;;;;;;10.80;1.00;;;;;;5054206;28;20257;-75
2023/01/07 05:26:50;;;;;;;;;;;10.80;1.00;;;;;;5041664;28;20434;-75
2023/01/07 05:29:15;;;;;;;;;;;10.80;1.00;;;;;;5033651;28;19920;-76
2023/01/07 05:31:41;;;;;;;;;;;10.80;1.00;;;;;;5046882;28;19936;-76
2023/01/07 05:34:07;;;;;;;;;;;10.80;1.00;;;;;;5042645;28;19932;-76
2023/01/07 05:36:37;;;;;;;;;;;10.80;1.00;;;;;;5052410;28;19910;-75
2023/01/07 05:39:08;;;;;;;;;;;10.80;1.00;;;;;;5058120;28;19916;-76
2023/01/07 05:53:45;;;;;;;;;;;10.70;1.00;;;;;;5040361;28;19970;-84
2023/01/07 05:56:13;;;;;;;;;;;10.70;1.00;;;;;;5036359;28;20360;-84
2023/01/07 06:07:48;;;;;;;;;;;10.70;1.00;;;;;;5048682;28;19916;-84
2023/01/07 06:13:17;;;;;;;;;;;10.60;1.00;;;;;;5043209;28;19920;-75
2023/01/07 06:15:43;;;;;;;;;;;10.60;1.00;;;;;;5054314;28;19913;-75
2023/01/07 06:18:19;;;;;;;;;;;10.60;1.00;;;;;;5043410;28;19909;-75
2023/01/07 06:21:02;;;;;;;;;;;10.60;1.00;;;;;;5048170;28;19909;-76
2023/01/07 06:23:44;;;;;;;;;;;10.50;1.00;;;;;;5044102;28;19913;-76
2023/01/07 06:26:09;;;;;;;;;;;10.50;1.00;;;;;;5059786;28;20368;-75
2023/01/07 06:28:35;;;;;;;;;;;10.50;1.00;;;;;;5034724;28;19909;-76
2023/01/07 06:31:08;;;;;;;;;;;10.50;1.00;;;;;;5032645;28;20323;-75
2023/01/07 06:33:39;;;;;;;;;;;10.50;1.00;;;;;;5054044;28;20272;-75
2023/01/07 06:36:05;;;;;;;;;;;10.50;1.00;;;;;;5040301;28;20391;-75
2023/01/07 06:38:38;;;;;;;;;;;10.50;1.00;;;;;;5041335;28;19944;-75
2023/01/07 06:41:03;;;;;;;;;;;10.50;1.00;;;;;;5039340;28;19995;-76
2023/01/07 06:46:31;;;;;;;;;;;10.40;1.00;;;;;;5045752;28;19923;-83
2023/01/07 06:55:03;;;;;;;;;;;10.40;1.00;;;;;;5051539;28;19956;-83
2023/01/07 06:57:37;;;;;;;;;;;10.40;1.00;;;;;;5041063;28;19913;-89
2023/01/07 07:00:31;;;;;;;;;;;10.40;1.00;;;;;;5037043;28;19948;-83
2023/01/07 07:06:00;;;;;;;;;;;10.50;1.00;;;;;;5049332;28;19932;-82
2023/01/07 07:08:44;;;;;;;;;;;10.50;1.00;;;;;;5038884;28;19913;-82
2023/01/07 07:11:26;;;;;;;;;;;10.50;1.00;;;;;;5046039;28;19923;-82
2023/01/07 07:16:56;;;;;;;;;;;10.50;1.00;;;;;;5055161;28;20012;-82
2023/01/07 07:19:32;;;;;;;;;;;10.50;1.00;;;;;;5044497;28;19921;-82
2023/01/07 07:22:25;;;;;;;;;;;10.40;1.00;;;;;;5056794;28;19913;-82
2023/01/07 07:24:51;;;;;;;;;;;10.40;1.00;;;;;;5051213;28;19913;-82
2023/01/07 07:27:26;;;;;;;;;;;10.40;1.00;;;;;;5044935;28;19913;-82
2023/01/07 07:29:56;;;;;;;;;;;10.40;1.00;;;;;;5035446;28;19917;-82
2023/01/07 07:32:27;;;;;;;;;;;10.30;1.00;;;;;;5050059;28;19956;-82
2023/01/07 07:35:08;;;;;;;;;;;10.40;1.00;;;;;;5046305;28;19955;-82
2023/01/07 07:37:50;;;;;;;;;;;10.30;1.00;;;;;;5041867;28;19920;-81
2023/01/07 07:40:15;;;;;;;;;;;10.30;1.00;;;;;;5036825;28;19917;-82
2023/01/07 07:42:44;;;;;;;;;;;10.40;1.00;;;;;;5051370;28;19919;-79
2023/01/07 07:45:15;;;;;;;;;;;10.30;1.00;;;;;;5036236;28;19935;-79
2023/01/07 07:47:56;;;;;;;;;;;10.30;1.00;;;;;;5035994;28;19917;-79
2023/01/07 07:50:38;;;;;;;;;;;10.40;1.00;;;;;;5048052;28;19913;-79
2023/01/07 07:53:09;;;;;;;;;;;10.40;1.00;;;;;;5041775;28;19909;-79
2023/01/07 07:55:45;;;;;;;;;;;10.40;1.00;;;;;;5055559;28;20000;-80
2023/01/07 07:58:44;;;;;;;;;;;10.50;1.00;;;;;;5047834;28;20285;-80
2023/01/07 08:01:14;;;;;;;;;;;10.50;1.00;;;;;;5037644;28;19913;-80
2023/01/07 08:03:39;;;;;;;;;;;10.50;1.00;;;;;;5051399;28;19992;-80
2023/01/07 08:06:14;;;;;;;;;;;10.60;1.00;;;;;;5055888;28;20010;-80
2023/01/07 08:08:40;;;;;;;;;;;10.60;1.00;;;;;;5052423;28;19916;-80
2023/01/07 08:11:32;;;;;;;;;;;10.70;1.00;;;;;;5035703;28;19913;-80
2023/01/07 08:14:08;;;;;;;;;;;10.80;1.00;;;;;;5045921;28;20396;-80
2023/01/07 08:16:44;;;;;;;;;;;10.80;1.00;;;;;;5055374;28;19913;-80
2023/01/07 08:19:20;;;;;;;;;;;10.90;1.00;;;;;;5044918;28;19913;-80
2023/01/07 08:21:47;;;;;;;;;;;10.90;1.00;;;;;;5042524;28;19909;-80
2023/01/07 08:24:32;;;;;;;;;;;10.80;1.00;;;;;;5044034;28;20279;-81
2023/01/07 08:27:02;;;;;;;;;;;10.90;1.00;;;;;;5038884;28;19923;-80
2023/01/07 08:29:38;;;;;;;;;;;10.90;1.00;;;;;;5045280;28;19921;-80
2023/01/07 08:32:04;;;;;;;;;;;10.90;1.00;;;;;;5051467;28;19915;-81
2023/01/07 08:34:29;;;;;;;;;;;11.00;1.00;;;;;;5045223;28;19909;-77
2023/01/07 08:37:20;;;;;;;;;;;11.00;1.00;;;;;;5040308;28;19966;-77
2023/01/07 08:39:45;;;;;;;;;;;11.00;1.00;;;;;;5041785;28;20312;-78
2023/01/07 08:42:11;;;;;;;;;;;11.00;1.00;;;;;;5046671;28;19913;-78
2023/01/07 08:44:44;;;;;;;;;;;11.10;1.00;;;;;;5048529;28;20280;-78
2023/01/07 08:47:14;;;;;;;;;;;11.10;1.00;;;;;;5042856;28;19917;-78
2023/01/07 08:49:50;;;;;;;;;;;11.20;1.00;;;;;;5041585;28;19953;-77
2023/01/07 08:52:20;;;;;;;;;;;11.30;1.00;;;;;;5054215;28;20366;-77
2023/01/07 08:54:50;;;;;;;;;;;11.30;1.00;;;;;;5038585;28;20246;-77
2023/01/07 08:57:20;;;;;;;;;;;11.30;1.00;;;;;;5045271;28;19916;-78
2023/01/07 08:59:46;;;;;;;;;;;11.30;1.00;;;;;;5036477;28;19913;-76
2023/01/07 09:02:18;;;;;;;;;;;11.30;1.00;;;;;;5041582;28;20037;-76
2023/01/07 09:04:44;;;;;;;;;;;11.40;1.00;;;;;;5034833;28;19909;-76
2023/01/07 09:07:20;;;;;;;;;;;11.40;1.00;;;;;;5034881;28;20007;-77
2023/01/07 09:09:50;;;;;;;;;;;11.40;1.00;;;;;;5041145;28;19913;-77
2023/01/07 09:12:16;;;;;;;;;;;11.40;1.00;;;;;;5047137;28;19913;-76
2023/01/07 09:14:51;;;;;;;;;;;11.50;1.00;;;;;;5061091;28;19919;-83
2023/01/07 09:17:32;;;;;;;;;;;11.60;1.00;;;;;;5051677;28;19980;-83
2023/01/07 09:26:08;;;;;;;;;;;11.60;1.00;;;;;;5034035;28;19916;-82
2023/01/07 09:28:44;;;;;;;;;;;11.70;1.00;;;;;;5040304;28;19916;-76
2023/01/07 09:31:14;;;;;;;;;;;11.70;1.00;;;;;;5047890;28;19912;-75
2023/01/07 09:33:40;;;;;;;;;;;11.70;1.00;;;;;;5033759;28;20882;-77
2023/01/07 09:36:08;;;;;;;;;;;11.70;1.00;;;;;;5034930;28;19916;-76
2023/01/07 09:38:38;;;;;;;;;;;11.70;1.00;;;;;;5034739;28;19909;-76
2023/01/07 09:41:34;;;;;;;;;;;11.80;1.00;;;;;;5034627;28;19917;-76
2023/01/07 09:47:04;;;;;;;;;;;11.80;1.00;;;;;;5012214;28;19949;-82
2023/01/07 09:52:58;;;;;;;;;;;11.80;1.00;;;;;;5006829;28;19941;-82
2023/01/07 10:01:49;;;;;;;;;;;12.10;1.00;;;;;;5017767;28;20292;-84
2023/01/07 10:04:20;;;;;;;;;;;12.20;1.00;;;;;;5009544;28;19913;-84
2023/01/07 10:07:20;;;;;;;;;;;12.20;1.00;;;;;;5012613;28;20324;-85
2023/01/07 10:09:50;;;;;;;;;;;12.20;1.00;;;;;;5004459;28;19913;-85
2023/01/07 10:15:26;;;;;;;;;;;12.40;1.00;;;;;;5018475;28;20404;-74
2023/01/07 10:18:00;;;;;;;;;;;12.40;1.00;;;;;;4999801;28;19921;-74
2023/01/07 10:20:29;;;;;;;;;;;12.50;1.00;;;;;;5040255;28;20039;-74
2023/01/07 10:23:08;;;;;;;;;;;12.50;1.00;;;;;;5043134;28;19909;-74
2023/01/07 10:25:42;;;;;;;;;;;12.60;1.00;;;;;;5041286;28;19967;-74
2023/01/07 10:28:12;;;;;;;;;;;12.80;1.00;;;;;;5044157;28;19916;-74
2023/01/07 10:30:41;;;;;;;;;;;12.90;1.00;;;;;;5034300;28;19913;-74
2023/01/07 10:33:28;;;;;;;;;;;13.00;1.00;;;;;;5045013;28;20406;-74
2023/01/07 10:36:18;;;;;;;;;;;13.10;1.00;;;;;;5044370;28;19936;-74
2023/01/07 10:38:47;;;;;;;;;;;13.10;1.00;;;;;;5051156;28;20364;-74
2023/01/07 10:41:25;;;;;;;;;;;13.30;1.00;;;;;;5043645;28;20426;-74
2023/01/07 10:43:55;;;;;;;;;;;13.40;1.00;;;;;;5041102;28;19963;-75
2023/01/07 10:46:36;;;;;;;;;;;13.40;1.00;;;;;;5040823;28;20361;-85
2023/01/07 10:49:38;;;;;;;;;;;13.40;1.00;;;;;;5039391;28;20050;-85
2023/01/07 11:01:21;;;;;;;;;;;13.70;1.00;;;;;;5042743;28;19988;-84
2023/01/07 11:03:52;;;;;;;;;;;13.70;1.00;;;;;;5057256;28;19913;-85
2023/01/07 11:06:50;;;;;;;;;;;13.80;1.00;;;;;;5038831;28;19952;-85
2023/01/07 11:09:35;;;;;;;;;;;13.60;1.00;;;;;;5058189;28;19916;-84
2023/01/07 11:15:06;;;;;;;;;;;13.60;1.00;;;;;;5044530;28;20319;-75
2023/01/07 11:17:40;;;;;;;;;;;13.60;1.00;;;;;;5038754;28;20230;-75
2023/01/07 11:20:34;;;;;;;;;;;13.60;1.00;;;;;;5048019;28;20407;-74
2023/01/07 11:23:16;;;;;;;;;;;13.40;1.00;;;;;;5054474;28;19935;-74
2023/01/07 11:25:42;;;;;;;;;;;13.50;1.00;;;;;;5041630;28;19913;-74
2023/01/07 11:28:15;;;;;;;;;;;13.60;1.00;;;;;;5061005;28;19909;-74
2023/01/07 11:30:54;;;;;;;;;;;13.60;1.00;;;;;;5056531;28;19913;-85
2023/01/07 11:33:38;;;;;;;;;;;13.70;1.00;;;;;;5048991;28;19909;-85
2023/01/07 11:36:17;;;;;;;;;;;13.70;1.00;;;;;;5055835;28;19915;-84
2023/01/07 11:38:43;;;;;;;;;;;13.70;1.00;;;;;;5043486;28;20019;-84
2023/01/07 11:41:27;;;;;;;;;;;13.70;1.00;;;;;;5049593;28;20084;-85
2023/01/07 11:46:56;;;;;;;;;;;13.40;1.00;;;;;;5036693;28;19928;-75
2023/01/07 11:49:26;;;;;;;;;;;13.40;1.00;;;;;;5063068;28;19917;-75
2023/01/07 11:51:52;;;;;;;;;;;13.30;1.00;;;;;;5050020;28;19913;-74
2023/01/07 11:54:28;;;;;;;;;;;13.30;1.00;;;;;;5067595;28;20383;-75
2023/01/07 11:57:14;;;;;;;;;;;13.20;1.00;;;;;;5052544;28;19958;-74
2023/01/07 11:59:40;;;;;;;;;;;13.00;1.00;;;;;;5052129;28;19913;-74
2023/01/07 12:02:21;;;;;;;;;;;13.00;1.00;;;;;;5036566;28;19916;-74
2023/01/07 12:04:50;;;;;;;;;;;13.00;1.00;;;;;;5039521;28;20399;-74
2023/01/07 12:07:16;;;;;;;;;;;13.00;1.00;;;;;;5046308;28;19909;-75
2023/01/07 12:09:44;;;;;;;;;;;12.90;1.00;;;;;;5038516;28;19987;-74
2023/01/07 12:12:33;;;;;;;;;;;12.90;1.00;;;;;;5037912;28;19999;-74
2023/01/07 12:21:11;;;;;;;;;;;12.80;1.00;;;;;;5035740;28;19916;-84
2023/01/07 12:23:38;;;;;;;;;;;12.70;1.00;;;;;;5047494;28;19913;-83
2023/01/07 12:26:16;;;;;;;;;;;12.70;1.00;;;;;;5035814;28;20277;-82
2023/01/07 12:29:02;;;;;;;;;;;12.80;1.00;;;;;;5051923;28;19917;-84
2023/01/07 12:31:44;;;;;;;;;;;12.80;1.00;;;;;;5039420;28;19932;-75
2023/01/07 12:34:13;;;;;;;;;;;12.70;1.00;;;;;;5057661;28;19959;-74
2023/01/07 12:36:59;;;;;;;;;;;12.60;1.00;;;;;;5067671;28;19927;-75
2023/01/07 12:39:26;;;;;;;;;;;12.50;1.00;;;;;;5036257;28;19967;-76
2023/01/07 12:41:56;;;;;;;;;;;12.40;1.00;;;;;;5068596;28;20325;-74
2023/01/07 12:44:22;;;;;;;;;;;12.50;1.00;;;;;;5057563;28;19920;-75
2023/01/07 12:49:56;;;;;;;;;;;12.40;1.00;;;;;;5074052;28;19927;-83
2023/01/07 12:55:50;;;;;;;;;;;12.40;1.00;;;;;;5036980;28;20346;-84
2023/01/07 12:58:26;;;;;;;;;;;12.40;1.00;;;;;;5041943;28;19921;-83
2023/01/07 13:00:56;;;;;;;;;;;12.40;1.00;;;;;;5035430;28;19916;-74
2023/01/07 13:03:27;;;;;;;;;;;12.50;1.00;;;;;;5052637;28;19909;-74
2023/01/07 13:06:02;;;;;;;;;;;12.40;1.00;;;;;;5050390;28;20303;-75
2023/01/07 13:08:39;;;;;;;;;;;12.50;1.00;;;;;;5059063;28;20272;-74
2023/01/07 13:11:14;;;;;;;;;;;12.30;1.00;;;;;;5041640;28;19917;-74
2023/01/07 13:13:49;;;;;;;;;;;12.40;1.00;;;;;;5067970;28;20252;-74
2023/01/07 13:16:32;;;;;;;;;;;12.30;1.00;;;;;;5065088;28;19956;-83
2023/01/07 13:25:26;;;;;;;;;;;12.20;1.00;;;;;;5051511;28;19919;-83
2023/01/07 13:34:07;;;;;;;;;;;12.20;1.00;;;;;;5043318;28;19935;-81
2023/01/07 13:39:47;;;;;;;;;;;12.20;1.00;;;;;;5054148;28;20296;-81
2023/01/07 13:42:33;;;;;;;;;;;12.20;1.00;;;;;;5048645;28;19913;-80
2023/01/07 13:45:15;;;;;;;;;;;12.10;1.00;;;;;;5051795;28;19964;-80
2023/01/07 13:47:47;;;;;;;;;;;12.00;1.00;;;;;;5039138;28;20377;-79
2023/01/07 13:56:18;;;;;;;;;;;12.10;1.00;;;;;;5073035;28;19989;-82
2023/01/07 13:58:45;;;;;;;;;;;11.90;1.00;;;;;;5059657;28;19921;-81
2023/01/07 14:01:39;;;;;;;;;;;11.90;1.00;;;;;;5039145;28;20303;-80
2023/01/07 14:04:09;;;;;;;;;;;11.80;1.00;;;;;;5034195;28;19958;-78
2023/01/07 14:06:45;;;;;;;;;;;11.90;1.00;;;;;;5032446;28;20277;-79
2023/01/07 14:09:24;;;;;;;;;;;11.90;1.00;;;;;;5037445;28;19959;-78
2023/01/07 14:11:51;;;;;;;;;;;11.90;1.00;;;;;;5037901;28;19920;-79
2023/01/07 14:14:39;;;;;;;;;;;11.90;1.00;;;;;;5037816;28;19909;-78
2023/01/07 14:23:14;;;;;;;;;;;12.00;1.00;;;;;;5037699;28;19916;-83
2023/01/07 14:25:57;;;;;;;;;;;11.90;1.00;;;;;;5039223;28;20320;-83
2023/01/07 14:31:33;;;;;;;;;;;11.90;1.00;;;;;;5048992;28;19920;-79
2023/01/07 14:37:07;;;;;;;;;;;11.90;1.00;;;;;;5042851;28;19967;-82
2023/01/07 14:39:34;;;;;;;;;;;11.90;1.00;;;;;;5037700;28;20284;-82
2023/01/07 14:45:29;;;;;;;;;;;11.80;1.00;;;;;;5057509;28;19916;-83
2023/01/07 14:48:23;;;;;;;;;;;11.70;1.00;;;;;;4996901;28;20313;-83
2023/01/07 14:57:00;;;;;;;;;;;11.80;1.00;;;;;;4993923;28;19961;-82
2023/01/07 14:59:57;;;;;;;;;;;11.80;1.00;;;;;;4995530;28;20512;-81
2023/01/07 15:20:08;;;;;;;;;;;11.60;1.00;;;;;;4994929;28;20297;-78
2023/01/07 15:23:09;;;;;;;;;;;11.60;1.00;;;;;;4984674;28;19917;-77
2023/01/07 15:25:57;;;;;;;;;;;11.50;1.00;;;;;;5011536;28;19914;-80
2023/01/07 15:28:38;;;;;;;;;;;11.50;1.00;;;;;;5050562;28;19915;-78
2023/01/07 15:31:11;;;;;;;;;;;11.50;1.00;;;;;;5050766;28;19959;-77
2023/01/07 15:33:49;;;;;;;;;;;11.60;1.00;;;;;;5051747;28;19955;-78
2023/01/07 15:36:15;;;;;;;;;;;11.60;1.00;;;;;;5037615;28;19940;-75
2023/01/07 15:38:44;;;;;;;;;;;11.60;1.00;;;;;;5036995;28;19909;-78
2023/01/07 15:41:28;;;;;;;;;;;11.40;1.00;;;;;;5048882;28;19987;-78
2023/01/07 15:44:15;;;;;;;;;;;11.40;1.00;;;;;;5051581;28;19913;-78
2023/01/07 15:46:40;;;;;;;;;;;11.40;1.00;;;;;;5036221;28;20002;-79
2023/01/07 15:49:15;;;;;;;;;;;11.40;1.00;;;;;;5042409;28;19909;-79
2023/01/07 15:52:15;;;;;;;;;;;11.40;1.00;;;;;;5049350;28;20250;-79
2023/01/07 15:54:40;;;;;;;;;;;11.40;1.00;;;;;;5037704;28;20009;-79
2023/01/07 15:57:15;;;;;;;;;;;11.40;1.00;;;;;;5044639;28;19995;-79
2023/01/07 15:59:45;;;;;;;;;;;11.40;1.00;;;;;;5049047;28;19910;-77
2023/01/07 16:02:15;;;;;;;;;;;11.50;1.00;;;;;;5047490;28;19916;-76
2023/01/07 16:04:52;;;;;;;;;;;11.50;1.00;;;;;;5039999;28;19954;-77
2023/01/07 16:07:39;;;;;;;;;;;11.50;1.00;;;;;;5054262;28;19913;-76
2023/01/07 16:10:25;;;;;;;;;;;11.50;1.00;;;;;;5045833;28;19917;-78
2023/01/07 16:12:52;;;;;;;;;;;11.50;1.00;;;;;;5035606;28;20016;-78
2023/01/07 16:15:22;;;;;;;;;;;11.50;1.00;;;;;;5048516;28;19915;-77
2023/01/07 16:18:10;;;;;;;;;;;11.50;1.00;;;;;;5054438;28;19909;-78
2023/01/07 16:20:36;;;;;;;;;;;11.60;1.00;;;;;;5038280;28;20361;-79
2023/01/07 16:23:08;;;;;;;;;;;11.50;1.00;;;;;;5044399;28;19947;-78
2023/01/07 16:25:42;;;;;;;;;;;11.60;1.00;;;;;;5044005;28;19909;-78
2023/01/07 16:28:13;;;;;;;;;;;11.60;1.00;;;;;;5047162;28;19920;-78
2023/01/07 16:30:40;;;;;;;;;;;11.60;1.00;;;;;;5041103;28;20307;-78
2023/01/07 16:33:26;;;;;;;;;;;11.50;1.00;;;;;;5042927;28;20023;-78
2023/01/07 16:36:06;;;;;;;;;;;11.40;1.00;;;;;;5035420;28;19920;-78
2023/01/07 16:38:35;;;;;;;;;;;11.40;1.00;;;;;;5037108;28;19913;-79
2023/01/07 16:41:27;;;;;;;;;;;11.40;1.00;;;;;;5043126;28;19913;-79
2023/01/07 16:43:53;;;;;;;;;;;11.50;1.00;;;;;;5041825;28;19913;-79
2023/01/07 16:46:29;;;;;;;;;;;11.50;1.00;;;;;;5040100;28;19913;-78
2023/01/07 16:52:05;;;;;;;;;;;11.30;1.00;;;;;;5041979;28;20380;-79
2023/01/07 16:54:33;;;;;;;;;;;11.20;1.00;;;;;;5052574;28;20015;-79
2023/01/07 16:57:06;;;;;;;;;;;11.10;1.00;;;;;;5060964;28;20295;-80
2023/01/07 16:59:35;;;;;;;;;;;11.10;1.00;;;;;;5054169;28;19913;-81
2023/01/07 17:02:24;;;;;;;;;;;10.90;1.00;;;;;;5044824;28;20336;-79
2023/01/07 17:04:52;;;;;;;;;;;10.80;1.00;;;;;;5025791;28;20453;-78
2023/01/07 17:07:27;;;;;;;;;;;10.70;1.00;;;;;;5026318;28;20373;-78
2023/01/07 17:10:29;;;;;;;;;;;10.60;1.00;;;;;;5026815;28;19964;-78
2023/01/07 17:12:57;;;;;;;;;;;10.50;1.00;;;;;;4992459;28;20387;-79
2023/01/07 17:15:51;;;;;;;;;;;10.30;1.00;;;;;;4992747;28;20420;-80
2023/01/07 17:18:33;;;;;;;;;;;10.20;1.00;;;;;;4992808;28;19910;-80
2023/01/07 17:20:59;;;;;;;;;;;10.10;1.00;;;;;;4992916;28;19949;-81
2023/01/07 17:26:28;;;;;;;;;;;9.80;1.00;;;;;;4985889;28;20329;-78
2023/01/07 17:29:11;;;;;;;;;;;9.60;1.00;;;;;;4990969;28;19909;-79
2023/01/07 17:31:57;;;;;;;;;;;9.50;1.00;;;;;;4992438;28;19913;-79
2023/01/07 17:34:27;;;;;;;;;;;9.40;1.00;;;;;;4993163;28;19953;-81
2023/01/07 17:36:58;;;;;;;;;;;9.40;1.00;;;;;;4979843;28;19920;-81
2023/01/07 17:39:45;;;;;;;;;;;9.30;1.00;;;;;;5000747;28;19914;-80
2023/01/07 17:45:21;;;;;;;;;;;9.10;1.00;;;;;;4989244;28;19941;-81
2023/01/07 17:47:59;;;;;;;;;;;9.00;1.00;;;;;;5041338;28;19953;-80
2023/01/07 17:50:33;;;;;;;;;;;9.00;1.00;;;;;;5034165;28;19935;-81
2023/01/07 17:52:58;;;;;;;;;;;8.80;1.00;;;;;;5033731;28;19921;-82
2023/01/07 17:55:39;;;;;;;;;;;8.80;1.00;;;;;;5050468;28;19920;-81
2023/01/07 17:58:26;;;;;;;;;;;8.70;1.00;;;;;;5052723;28;19909;-81
2023/01/07 18:03:54;;;;;;;;;;;8.60;1.00;;;;;;5036737;28;19920;-78
2023/01/07 18:09:40;;;;;;;;;;;8.50;1.00;;;;;;5045061;28;19909;-77
2023/01/07 18:17:56;;;;;;;;;;;8.30;1.00;;;;;;5042168;28;19975;-78
2023/01/07 18:20:21;;;;;;;;;;;8.20;1.00;;;;;;5037478;28;20444;-82
2023/01/07 18:29:04;;;;;;;;;;;8.00;1.00;;;;;;5041821;28;20304;-80
2023/01/07 18:34:32;;;;;;;;;;;7.80;1.00;;;;;;5055269;28;20288;-80
2023/01/07 18:37:27;;;;;;;;;;;7.70;1.00;;;;;;5065167;28;19913;-80
2023/01/07 18:40:15;;;;;;;;;;;7.70;1.00;;;;;;5052991;28;19923;-82
2023/01/07 18:42:41;;;;;;;;;;;7.60;1.00;;;;;;5052551;28;19966;-83
2023/01/07 18:45:16;;;;;;;;;;;7.60;1.00;;;;;;5048130;28;19910;-82
2023/01/07 18:50:45;;;;;;;;;;;7.60;1.00;;;;;;5036509;28;20002;-81
2023/01/07 18:53:11;;;;;;;;;;;7.60;1.00;;;;;;5045946;28;19917;-82
2023/01/07 18:55:40;;;;;;;;;;;7.60;1.00;;;;;;5050594;28;19936;-82
2023/01/07 19:01:09;;;;;;;;;;;7.60;1.00;;;;;;5057040;28;19919;-81
2023/01/07 19:03:51;;;;;;;;;;;7.70;1.00;;;;;;5046401;28;19909;-81
2023/01/07 19:06:51;;;;;;;;;;;7.60;1.00;;;;;;5037452;28;20257;-80
2023/01/07 19:09:22;;;;;;;;;;;7.60;1.00;;;;;;5040617;28;19913;-75
2023/01/07 19:12:04;;;;;;;;;;;7.60;1.00;;;;;;5037082;28;19920;-75
2023/01/07 19:14:30;;;;;;;;;;;7.60;1.00;;;;;;5039044;28;19959;-75
2023/01/07 19:16:56;;;;;;;;;;;7.60;1.00;;;;;;5049681;28;19909;-76
2023/01/07 19:19:33;;;;;;;;;;;7.70;1.00;;;;;;5057479;28;19958;-74
2023/01/07 19:21:59;;;;;;;;;;;7.60;1.00;;;;;;5047420;28;19925;-75
2023/01/07 19:24:25;;;;;;;;;;;7.60;1.00;;;;;;5041884;28;21252;-75
2023/01/07 19:26:51;;;;;;;;;;;7.50;1.00;;;;;;5043501;28;19920;-75
2023/01/07 19:29:17;;;;;;;;;;;7.50;1.00;;;;;;5052321;28;19913;-75
2023/01/07 19:31:44;;;;;;;;;;;7.50;1.00;;;;;;5047316;28;19920;-73